sensor_id;sensor_type;location;lat;lon;timestamp;P1;durP1;ratioP1;P2;durP2;ratioP2
6505;SDS011;3286;49.858;8.768;2022-09-01T00:01:40;3.00;;;2.70;;
6505;SDS011;3286;49.858;8.768;2022-09-01T00:04:10;2.92;;;2.65;;
6505;SDS011;3286;49.858;8.768;2022-09-01T00:06:40;4.53;;;2.80;;
6505;SDS011;3286;49.858;8.768;2022-09-01T00:09:08;4.30;;;2.70;;
6505;SDS011;3286;49.858;8.768;2022-09-01T00:11:36;5.18;;;2.58;;
6505;SDS011;3286;49.858;8.768;2022-09-01T00:14:05;3.35;;;2.78;;
6505;SDS011;3286;49.858;8.768;2022-09-01T00:16:35;4.57;;;2.60;;
6505;SDS011;3286;49.858;8.768;2022-09-01T00:19:02;7.18;;;2.70;;
6505;SDS011;3286;49.858;8.768;2022-09-01T00:21:30;4.07;;;2.80;;
6505;SDS011;3286;49.858;8.768;2022-09-01T00:23:58;4.13;;;2.63;;
6505;SDS011;3286;49.858;8.768;2022-09-01T00:26:33;3.67;;;3.07;;
6505;SDS011;3286;49.858;8.768;2022-09-01T00:29:00;4.53;;;2.70;;
6505;SDS011;3286;49.858;8.768;2022-09-01T00:31:29;3.42;;;2.83;;
6505;SDS011;3286;49.858;8.768;2022-09-01T00:33:58;2.67;;;2.47;;
6505;SDS011;3286;49.858;8.768;2022-09-01T00:36:25;3.58;;;2.80;;
6505;SDS011;3286;49.858;8.768;2022-09-01T00:38:54;2.67;;;2.45;;
6505;SDS011;3286;49.858;8.768;2022-09-01T00:41:22;6.00;;;3.20;;
6505;SDS011;3286;49.858;8.768;2022-09-01T00:43:51;3.65;;;2.58;;
6505;SDS011;3286;49.858;8.768;2022-09-01T00:46:21;4.55;;;2.83;;
6505;SDS011;3286;49.858;8.768;2022-09-01T00:48:50;3.67;;;2.67;;
6505;SDS011;3286;49.858;8.768;2022-09-01T00:51:20;3.33;;;2.77;;
6505;SDS011;3286;49.858;8.768;2022-09-01T00:53:48;5.60;;;2.75;;
6505;SDS011;3286;49.858;8.768;2022-09-01T00:56:15;3.05;;;2.80;;
6505;SDS011;3286;49.858;8.768;2022-09-01T00:58:42;5.07;;;2.72;;
6505;SDS011;3286;49.858;8.768;2022-09-01T01:01:11;3.05;;;2.58;;
6505;SDS011;3286;49.858;8.768;2022-09-01T01:03:39;2.93;;;2.60;;
6505;SDS011;3286;49.858;8.768;2022-09-01T01:06:09;2.90;;;2.60;;
6505;SDS011;3286;49.858;8.768;2022-09-01T01:08:39;2.67;;;2.47;;
6505;SDS011;3286;49.858;8.768;2022-09-01T01:11:14;6.70;;;2.90;;
6505;SDS011;3286;49.858;8.768;2022-09-01T01:13:45;3.67;;;2.58;;
6505;SDS011;3286;49.858;8.768;2022-09-01T01:16:17;6.63;;;2.38;;
6505;SDS011;3286;49.858;8.768;2022-09-01T01:18:43;3.65;;;2.63;;
6505;SDS011;3286;49.858;8.768;2022-09-01T01:21:16;4.65;;;2.60;;
6505;SDS011;3286;49.858;8.768;2022-09-01T01:24:04;6.05;;;2.60;;
6505;SDS011;3286;49.858;8.768;2022-09-01T01:26:39;3.13;;;2.83;;
6505;SDS011;3286;49.858;8.768;2022-09-01T01:29:09;5.90;;;2.88;;
6505;SDS011;3286;49.858;8.768;2022-09-01T01:31:37;2.70;;;2.50;;
6505;SDS011;3286;49.858;8.768;2022-09-01T01:34:04;3.53;;;2.67;;
6505;SDS011;3286;49.858;8.768;2022-09-01T01:36:32;8.07;;;3.20;;
6505;SDS011;3286;49.858;8.768;2022-09-01T01:39:03;4.03;;;2.65;;
6505;SDS011;3286;49.858;8.768;2022-09-01T01:41:32;4.40;;;2.50;;
6505;SDS011;3286;49.858;8.768;2022-09-01T01:44:01;5.55;;;2.70;;
6505;SDS011;3286;49.858;8.768;2022-09-01T01:46:29;4.47;;;2.83;;
6505;SDS011;3286;49.858;8.768;2022-09-01T01:48:56;3.63;;;2.90;;
6505;SDS011;3286;49.858;8.768;2022-09-01T01:51:23;2.88;;;2.58;;
6505;SDS011;3286;49.858;8.768;2022-09-01T01:53:52;3.28;;;2.80;;
6505;SDS011;3286;49.858;8.768;2022-09-01T01:56:20;2.43;;;2.23;;
6505;SDS011;3286;49.858;8.768;2022-09-01T01:58:49;3.10;;;2.50;;
6505;SDS011;3286;49.858;8.768;2022-09-01T02:01:21;2.93;;;2.30;;
6505;SDS011;3286;49.858;8.768;2022-09-01T02:03:49;5.63;;;2.47;;
6505;SDS011;3286;49.858;8.768;2022-09-01T02:06:19;2.70;;;2.20;;
6505;SDS011;3286;49.858;8.768;2022-09-01T02:08:48;3.60;;;2.50;;
6505;SDS011;3286;49.858;8.768;2022-09-01T02:11:16;2.78;;;2.45;;
6505;SDS011;3286;49.858;8.768;2022-09-01T02:13:43;3.50;;;2.37;;
6505;SDS011;3286;49.858;8.768;2022-09-01T02:16:11;5.03;;;2.60;;
6505;SDS011;3286;49.858;8.768;2022-09-01T02:18:41;3.70;;;2.23;;
6505;SDS011;3286;49.858;8.768;2022-09-01T02:21:12;2.70;;;2.40;;
6505;SDS011;3286;49.858;8.768;2022-09-01T02:23:46;2.50;;;2.25;;
6505;SDS011;3286;49.858;8.768;2022-09-01T02:26:16;2.93;;;2.63;;
6505;SDS011;3286;49.858;8.768;2022-09-01T02:28:47;4.03;;;2.63;;
6505;SDS011;3286;49.858;8.768;2022-09-01T02:31:14;4.07;;;2.57;;
6505;SDS011;3286;49.858;8.768;2022-09-01T02:33:46;3.07;;;2.77;;
6505;SDS011;3286;49.858;8.768;2022-09-01T02:36:14;3.40;;;2.40;;
6505;SDS011;3286;49.858;8.768;2022-09-01T02:38:45;4.30;;;2.60;;
6505;SDS011;3286;49.858;8.768;2022-09-01T02:41:15;6.63;;;2.50;;
6505;SDS011;3286;49.858;8.768;2022-09-01T02:43:44;2.90;;;2.60;;
6505;SDS011;3286;49.858;8.768;2022-09-01T02:46:11;2.93;;;2.30;;
6505;SDS011;3286;49.858;8.768;2022-09-01T02:48:40;2.80;;;2.50;;
6505;SDS011;3286;49.858;8.768;2022-09-01T02:51:15;3.37;;;2.50;;
6505;SDS011;3286;49.858;8.768;2022-09-01T02:53:43;2.77;;;2.57;;
6505;SDS011;3286;49.858;8.768;2022-09-01T02:56:17;2.60;;;2.40;;
6505;SDS011;3286;49.858;8.768;2022-09-01T02:58:47;3.23;;;2.70;;
6505;SDS011;3286;49.858;8.768;2022-09-01T03:01:14;2.97;;;2.67;;
6505;SDS011;3286;49.858;8.768;2022-09-01T03:03:44;4.43;;;2.60;;
6505;SDS011;3286;49.858;8.768;2022-09-01T03:06:11;3.87;;;2.70;;
6505;SDS011;3286;49.858;8.768;2022-09-01T03:08:46;4.17;;;2.60;;
6505;SDS011;3286;49.858;8.768;2022-09-01T03:11:13;2.60;;;2.30;;
6505;SDS011;3286;49.858;8.768;2022-09-01T03:13:40;4.20;;;2.47;;
6505;SDS011;3286;49.858;8.768;2022-09-01T03:16:07;3.30;;;2.67;;
6505;SDS011;3286;49.858;8.768;2022-09-01T03:18:34;2.97;;;2.50;;
6505;SDS011;3286;49.858;8.768;2022-09-01T03:21:02;4.60;;;2.70;;
6505;SDS011;3286;49.858;8.768;2022-09-01T03:23:30;18.97;;;3.20;;
6505;SDS011;3286;49.858;8.768;2022-09-01T03:25:59;3.13;;;2.60;;
6505;SDS011;3286;49.858;8.768;2022-09-01T03:28:26;2.70;;;2.50;;
6505;SDS011;3286;49.858;8.768;2022-09-01T03:30:54;4.20;;;2.60;;
6505;SDS011;3286;49.858;8.768;2022-09-01T03:33:23;3.57;;;2.60;;
6505;SDS011;3286;49.858;8.768;2022-09-01T03:35:51;7.77;;;2.67;;
6505;SDS011;3286;49.858;8.768;2022-09-01T03:38:18;4.37;;;2.77;;
6505;SDS011;3286;49.858;8.768;2022-09-01T03:40:47;4.43;;;2.60;;
6505;SDS011;3286;49.858;8.768;2022-09-01T03:43:16;4.10;;;2.50;;
6505;SDS011;3286;49.858;8.768;2022-09-01T03:45:44;3.03;;;2.60;;
6505;SDS011;3286;49.858;8.768;2022-09-01T03:48:11;4.03;;;2.70;;
6505;SDS011;3286;49.858;8.768;2022-09-01T03:50:41;8.10;;;2.80;;
6505;SDS011;3286;49.858;8.768;2022-09-01T03:53:10;2.83;;;2.63;;
6505;SDS011;3286;49.858;8.768;2022-09-01T03:55:38;5.03;;;2.90;;
6505;SDS011;3286;49.858;8.768;2022-09-01T03:58:07;4.27;;;2.77;;
6505;SDS011;3286;49.858;8.768;2022-09-01T04:00:38;3.50;;;2.43;;
6505;SDS011;3286;49.858;8.768;2022-09-01T04:03:09;2.70;;;2.40;;
6505;SDS011;3286;49.858;8.768;2022-09-01T04:05:41;3.57;;;2.77;;
6505;SDS011;3286;49.858;8.768;2022-09-01T04:08:11;3.57;;;2.70;;
6505;SDS011;3286;49.858;8.768;2022-09-01T04:10:45;2.87;;;2.57;;
6505;SDS011;3286;49.858;8.768;2022-09-01T04:13:15;4.10;;;2.63;;
6505;SDS011;3286;49.858;8.768;2022-09-01T04:15:44;8.93;;;2.70;;
6505;SDS011;3286;49.858;8.768;2022-09-01T04:18:11;6.23;;;3.10;;
6505;SDS011;3286;49.858;8.768;2022-09-01T04:20:44;4.50;;;3.03;;
6505;SDS011;3286;49.858;8.768;2022-09-01T04:23:16;4.63;;;3.60;;
6505;SDS011;3286;49.858;8.768;2022-09-01T04:25:52;5.63;;;3.10;;
6505;SDS011;3286;49.858;8.768;2022-09-01T04:28:21;3.70;;;2.63;;
6505;SDS011;3286;49.858;8.768;2022-09-01T04:30:53;3.10;;;2.80;;
6505;SDS011;3286;49.858;8.768;2022-09-01T04:33:23;4.40;;;3.10;;
6505;SDS011;3286;49.858;8.768;2022-09-01T04:35:50;3.47;;;3.00;;
6505;SDS011;3286;49.858;8.768;2022-09-01T04:38:19;4.03;;;2.67;;
6505;SDS011;3286;49.858;8.768;2022-09-01T04:40:46;3.10;;;2.73;;
6505;SDS011;3286;49.858;8.768;2022-09-01T04:43:17;3.67;;;2.57;;
6505;SDS011;3286;49.858;8.768;2022-09-01T04:45:44;5.87;;;2.80;;
6505;SDS011;3286;49.858;8.768;2022-09-01T04:48:17;6.33;;;3.03;;
6505;SDS011;3286;49.858;8.768;2022-09-01T04:50:53;5.93;;;3.30;;
6505;SDS011;3286;49.858;8.768;2022-09-01T04:53:22;4.47;;;3.07;;
6505;SDS011;3286;49.858;8.768;2022-09-01T04:55:49;4.53;;;3.50;;
6505;SDS011;3286;49.858;8.768;2022-09-01T04:58:16;5.37;;;2.80;;
6505;SDS011;3286;49.858;8.768;2022-09-01T05:00:47;4.67;;;3.40;;
6505;SDS011;3286;49.858;8.768;2022-09-01T05:03:18;5.13;;;3.20;;
6505;SDS011;3286;49.858;8.768;2022-09-01T05:05:48;4.37;;;3.00;;
6505;SDS011;3286;49.858;8.768;2022-09-01T05:08:18;4.63;;;2.97;;
6505;SDS011;3286;49.858;8.768;2022-09-01T05:10:48;6.13;;;3.00;;
6505;SDS011;3286;49.858;8.768;2022-09-01T05:13:17;4.00;;;2.90;;
6505;SDS011;3286;49.858;8.768;2022-09-01T05:15:58;4.97;;;3.00;;
6505;SDS011;3286;49.858;8.768;2022-09-01T05:18:29;4.93;;;2.80;;
6505;SDS011;3286;49.858;8.768;2022-09-01T05:20:56;3.23;;;2.50;;
6505;SDS011;3286;49.858;8.768;2022-09-01T05:23:23;3.53;;;3.03;;
6505;SDS011;3286;49.858;8.768;2022-09-01T05:25:54;3.53;;;2.33;;
6505;SDS011;3286;49.858;8.768;2022-09-01T05:28:22;10.10;;;2.87;;
6505;SDS011;3286;49.858;8.768;2022-09-01T05:30:51;3.20;;;2.50;;
6505;SDS011;3286;49.858;8.768;2022-09-01T05:33:19;4.90;;;2.97;;
6505;SDS011;3286;49.858;8.768;2022-09-01T05:35:52;4.60;;;2.40;;
6505;SDS011;3286;49.858;8.768;2022-09-01T05:38:23;3.27;;;2.60;;
6505;SDS011;3286;49.858;8.768;2022-09-01T05:40:56;3.27;;;2.80;;
6505;SDS011;3286;49.858;8.768;2022-09-01T05:43:26;7.60;;;2.70;;
6505;SDS011;3286;49.858;8.768;2022-09-01T05:45:54;2.80;;;2.50;;
6505;SDS011;3286;49.858;8.768;2022-09-01T05:48:25;9.90;;;2.90;;
6505;SDS011;3286;49.858;8.768;2022-09-01T05:50:57;3.08;;;2.50;;
6505;SDS011;3286;49.858;8.768;2022-09-01T05:53:24;4.97;;;2.90;;
6505;SDS011;3286;49.858;8.768;2022-09-01T05:55:53;4.95;;;2.65;;
6505;SDS011;3286;49.858;8.768;2022-09-01T05:58:22;3.00;;;2.53;;
6505;SDS011;3286;49.858;8.768;2022-09-01T06:00:54;2.87;;;2.57;;
6505;SDS011;3286;49.858;8.768;2022-09-01T06:03:23;3.90;;;2.63;;
6505;SDS011;3286;49.858;8.768;2022-09-01T06:05:51;3.47;;;2.70;;
6505;SDS011;3286;49.858;8.768;2022-09-01T06:08:21;3.60;;;2.63;;
6505;SDS011;3286;49.858;8.768;2022-09-01T06:10:53;3.47;;;2.80;;
6505;SDS011;3286;49.858;8.768;2022-09-01T06:13:19;5.53;;;2.60;;
6505;SDS011;3286;49.858;8.768;2022-09-01T06:15:49;3.90;;;2.70;;
6505;SDS011;3286;49.858;8.768;2022-09-01T06:18:20;3.55;;;2.60;;
6505;SDS011;3286;49.858;8.768;2022-09-01T06:20:49;4.07;;;2.90;;
6505;SDS011;3286;49.858;8.768;2022-09-01T06:23:25;3.47;;;2.85;;
6505;SDS011;3286;49.858;8.768;2022-09-01T06:25:51;7.00;;;2.37;;
6505;SDS011;3286;49.858;8.768;2022-09-01T06:28:19;5.20;;;2.75;;
6505;SDS011;3286;49.858;8.768;2022-09-01T06:30:48;5.57;;;2.85;;
6505;SDS011;3286;49.858;8.768;2022-09-01T06:33:16;2.47;;;2.20;;
6505;SDS011;3286;49.858;8.768;2022-09-01T06:35:45;6.47;;;2.70;;
6505;SDS011;3286;49.858;8.768;2022-09-01T06:38:12;4.00;;;3.20;;
6505;SDS011;3286;49.858;8.768;2022-09-01T06:40:40;5.93;;;2.70;;
6505;SDS011;3286;49.858;8.768;2022-09-01T06:43:07;2.97;;;2.60;;
6505;SDS011;3286;49.858;8.768;2022-09-01T06:45:38;4.93;;;2.58;;
6505;SDS011;3286;49.858;8.768;2022-09-01T06:48:06;2.78;;;2.50;;
6505;SDS011;3286;49.858;8.768;2022-09-01T06:50:35;4.78;;;2.60;;
6505;SDS011;3286;49.858;8.768;2022-09-01T06:53:05;2.97;;;2.63;;
6505;SDS011;3286;49.858;8.768;2022-09-01T06:55:37;3.50;;;2.30;;
6505;SDS011;3286;49.858;8.768;2022-09-01T06:58:05;2.67;;;2.30;;
6505;SDS011;3286;49.858;8.768;2022-09-01T07:00:33;4.88;;;1.90;;
6505;SDS011;3286;49.858;8.768;2022-09-01T07:03:06;4.82;;;2.20;;
6505;SDS011;3286;49.858;8.768;2022-09-01T07:05:36;2.83;;;2.35;;
6505;SDS011;3286;49.858;8.768;2022-09-01T07:08:04;3.20;;;2.50;;
6505;SDS011;3286;49.858;8.768;2022-09-01T07:10:38;4.28;;;2.55;;
6505;SDS011;3286;49.858;8.768;2022-09-01T07:13:11;4.45;;;2.20;;
6505;SDS011;3286;49.858;8.768;2022-09-01T07:15:47;2.20;;;2.00;;
6505;SDS011;3286;49.858;8.768;2022-09-01T07:18:14;6.80;;;2.60;;
6505;SDS011;3286;49.858;8.768;2022-09-01T07:20:41;7.28;;;2.45;;
6505;SDS011;3286;49.858;8.768;2022-09-01T07:23:13;4.47;;;2.67;;
6505;SDS011;3286;49.858;8.768;2022-09-01T07:25:41;5.50;;;2.42;;
6505;SDS011;3286;49.858;8.768;2022-09-01T07:28:11;4.78;;;2.70;;
6505;SDS011;3286;49.858;8.768;2022-09-01T07:30:41;3.88;;;2.38;;
6505;SDS011;3286;49.858;8.768;2022-09-01T07:33:12;3.95;;;2.22;;
6505;SDS011;3286;49.858;8.768;2022-09-01T07:35:41;6.28;;;2.40;;
6505;SDS011;3286;49.858;8.768;2022-09-01T07:38:11;5.88;;;2.40;;
6505;SDS011;3286;49.858;8.768;2022-09-01T07:40:40;4.70;;;2.20;;
6505;SDS011;3286;49.858;8.768;2022-09-01T07:43:09;2.50;;;2.22;;
6505;SDS011;3286;49.858;8.768;2022-09-01T07:45:44;4.40;;;3.15;;
6505;SDS011;3286;49.858;8.768;2022-09-01T07:48:13;3.88;;;2.10;;
6505;SDS011;3286;49.858;8.768;2022-09-01T07:50:44;3.97;;;2.00;;
6505;SDS011;3286;49.858;8.768;2022-09-01T07:53:18;2.78;;;2.10;;
6505;SDS011;3286;49.858;8.768;2022-09-01T07:55:47;4.82;;;2.03;;
6505;SDS011;3286;49.858;8.768;2022-09-01T07:58:17;2.47;;;1.85;;
6505;SDS011;3286;49.858;8.768;2022-09-01T08:00:46;2.95;;;2.40;;
6505;SDS011;3286;49.858;8.768;2022-09-01T08:03:14;3.20;;;2.40;;
6505;SDS011;3286;49.858;8.768;2022-09-01T08:05:42;4.78;;;2.15;;
6505;SDS011;3286;49.858;8.768;2022-09-01T08:08:09;4.25;;;1.90;;
6505;SDS011;3286;49.858;8.768;2022-09-01T08:10:37;9.30;;;2.00;;
6505;SDS011;3286;49.858;8.768;2022-09-01T08:13:04;7.47;;;2.20;;
6505;SDS011;3286;49.858;8.768;2022-09-01T08:15:32;6.07;;;1.92;;
6505;SDS011;3286;49.858;8.768;2022-09-01T08:17:59;4.47;;;2.38;;
6505;SDS011;3286;49.858;8.768;2022-09-01T08:20:28;6.35;;;2.25;;
6505;SDS011;3286;49.858;8.768;2022-09-01T08:22:55;2.55;;;2.00;;
6505;SDS011;3286;49.858;8.768;2022-09-01T08:25:22;3.33;;;2.00;;
6505;SDS011;3286;49.858;8.768;2022-09-01T08:27:51;14.27;;;2.65;;
6505;SDS011;3286;49.858;8.768;2022-09-01T08:30:18;3.10;;;2.25;;
6505;SDS011;3286;49.858;8.768;2022-09-01T08:32:47;2.38;;;1.98;;
6505;SDS011;3286;49.858;8.768;2022-09-01T08:35:14;3.15;;;2.20;;
6505;SDS011;3286;49.858;8.768;2022-09-01T08:37:41;6.03;;;2.08;;
6505;SDS011;3286;49.858;8.768;2022-09-01T08:40:09;3.92;;;2.03;;
6505;SDS011;3286;49.858;8.768;2022-09-01T08:42:43;2.17;;;1.83;;
6505;SDS011;3286;49.858;8.768;2022-09-01T08:45:19;4.95;;;1.90;;
6505;SDS011;3286;49.858;8.768;2022-09-01T08:47:52;5.53;;;2.00;;
6505;SDS011;3286;49.858;8.768;2022-09-01T08:50:40;2.90;;;1.98;;
6505;SDS011;3286;49.858;8.768;2022-09-01T08:53:15;2.78;;;2.45;;
6505;SDS011;3286;49.858;8.768;2022-09-01T08:55:53;10.18;;;2.08;;
6505;SDS011;3286;49.858;8.768;2022-09-01T08:58:22;3.15;;;1.85;;
6505;SDS011;3286;49.858;8.768;2022-09-01T09:00:53;5.18;;;2.20;;
6505;SDS011;3286;49.858;8.768;2022-09-01T09:03:29;4.05;;;2.10;;
6505;SDS011;3286;49.858;8.768;2022-09-01T09:06:06;2.90;;;2.30;;
6505;SDS011;3286;49.858;8.768;2022-09-01T09:14:30;2.38;;;2.00;;
6505;SDS011;3286;49.858;8.768;2022-09-01T09:17:07;7.63;;;2.42;;
6505;SDS011;3286;49.858;8.768;2022-09-01T09:19:38;3.83;;;2.20;;
6505;SDS011;3286;49.858;8.768;2022-09-01T09:22:07;5.72;;;2.22;;
6505;SDS011;3286;49.858;8.768;2022-09-01T09:24:36;2.97;;;1.98;;
6505;SDS011;3286;49.858;8.768;2022-09-01T09:27:15;3.83;;;2.00;;
6505;SDS011;3286;49.858;8.768;2022-09-01T09:29:46;3.05;;;2.03;;
6505;SDS011;3286;49.858;8.768;2022-09-01T09:32:15;2.55;;;1.90;;
6505;SDS011;3286;49.858;8.768;2022-09-01T09:34:43;2.35;;;2.10;;
6505;SDS011;3286;49.858;8.768;2022-09-01T09:37:16;2.92;;;1.90;;
6505;SDS011;3286;49.858;8.768;2022-09-01T09:43:01;3.95;;;1.92;;
6505;SDS011;3286;49.858;8.768;2022-09-01T09:45:30;2.05;;;1.80;;
6505;SDS011;3286;49.858;8.768;2022-09-01T09:47:59;13.73;;;2.13;;
6505;SDS011;3286;49.858;8.768;2022-09-01T09:50:32;12.65;;;1.95;;
6505;SDS011;3286;49.858;8.768;2022-09-01T09:53:10;2.30;;;1.92;;
6505;SDS011;3286;49.858;8.768;2022-09-01T09:55:54;4.43;;;1.80;;
6505;SDS011;3286;49.858;8.768;2022-09-01T09:58:24;2.35;;;1.80;;
6505;SDS011;3286;49.858;8.768;2022-09-01T10:01:06;9.13;;;2.30;;
6505;SDS011;3286;49.858;8.768;2022-09-01T10:03:41;8.20;;;2.10;;
6505;SDS011;3286;49.858;8.768;2022-09-01T10:06:13;3.92;;;2.17;;
6505;SDS011;3286;49.858;8.768;2022-09-01T10:08:58;3.22;;;2.10;;
6505;SDS011;3286;49.858;8.768;2022-09-01T10:11:28;2.38;;;1.85;;
6505;SDS011;3286;49.858;8.768;2022-09-01T10:14:03;4.35;;;2.05;;
6505;SDS011;3286;49.858;8.768;2022-09-01T10:16:36;3.42;;;1.90;;
6505;SDS011;3286;49.858;8.768;2022-09-01T10:19:09;2.00;;;1.80;;
6505;SDS011;3286;49.858;8.768;2022-09-01T10:21:41;2.67;;;2.00;;
6505;SDS011;3286;49.858;8.768;2022-09-01T10:24:15;4.20;;;1.80;;
6505;SDS011;3286;49.858;8.768;2022-09-01T10:26:45;2.00;;;1.67;;
6505;SDS011;3286;49.858;8.768;2022-09-01T10:29:19;2.40;;;1.67;;
6505;SDS011;3286;49.858;8.768;2022-09-01T10:31:52;2.13;;;1.60;;
6505;SDS011;3286;49.858;8.768;2022-09-01T10:34:20;2.60;;;1.80;;
6505;SDS011;3286;49.858;8.768;2022-09-01T10:36:50;4.25;;;1.45;;
6505;SDS011;3286;49.858;8.768;2022-09-01T10:39:17;3.78;;;1.85;;
6505;SDS011;3286;49.858;8.768;2022-09-01T10:41:45;4.05;;;1.70;;
6505;SDS011;3286;49.858;8.768;2022-09-01T10:44:19;2.90;;;1.80;;
6505;SDS011;3286;49.858;8.768;2022-09-01T10:46:49;2.05;;;1.60;;
6505;SDS011;3286;49.858;8.768;2022-09-01T10:49:18;1.60;;;1.50;;
6505;SDS011;3286;49.858;8.768;2022-09-01T10:51:47;3.15;;;1.60;;
6505;SDS011;3286;49.858;8.768;2022-09-01T10:57:24;3.22;;;1.58;;
6505;SDS011;3286;49.858;8.768;2022-09-01T11:00:14;2.63;;;1.70;;
6505;SDS011;3286;49.858;8.768;2022-09-01T11:06:42;5.75;;;1.95;;
6505;SDS011;3286;49.858;8.768;2022-09-01T11:09:35;5.78;;;1.90;;
6505;SDS011;3286;49.858;8.768;2022-09-01T11:12:17;2.03;;;1.70;;
6505;SDS011;3286;49.858;8.768;2022-09-01T11:14:54;3.45;;;1.77;;
6505;SDS011;3286;49.858;8.768;2022-09-01T11:17:23;2.03;;;1.80;;
6505;SDS011;3286;49.858;8.768;2022-09-01T11:19:56;4.70;;;2.15;;
6505;SDS011;3286;49.858;8.768;2022-09-01T11:22:29;3.78;;;1.65;;
6505;SDS011;3286;49.858;8.768;2022-09-01T11:25:08;3.00;;;1.55;;
6505;SDS011;3286;49.858;8.768;2022-09-01T11:28:07;4.80;;;1.73;;
6505;SDS011;3286;49.858;8.768;2022-09-01T11:31:00;4.00;;;1.70;;
6505;SDS011;3286;49.858;8.768;2022-09-01T11:33:44;1.95;;;1.70;;
6505;SDS011;3286;49.858;8.768;2022-09-01T11:36:23;1.95;;;1.75;;
6505;SDS011;3286;49.858;8.768;2022-09-01T11:38:56;4.68;;;1.60;;
6505;SDS011;3286;49.858;8.768;2022-09-01T11:41:31;3.15;;;1.63;;
6505;SDS011;3286;49.858;8.768;2022-09-01T11:44:06;3.00;;;1.80;;
6505;SDS011;3286;49.858;8.768;2022-09-01T11:46:38;2.97;;;1.58;;
6505;SDS011;3286;49.858;8.768;2022-09-01T11:49:07;8.95;;;1.73;;
6505;SDS011;3286;49.858;8.768;2022-09-01T11:51:51;3.03;;;1.75;;
6505;SDS011;3286;49.858;8.768;2022-09-01T11:54:18;3.97;;;1.70;;
6505;SDS011;3286;49.858;8.768;2022-09-01T11:56:45;2.17;;;1.77;;
6505;SDS011;3286;49.858;8.768;2022-09-01T11:59:13;4.93;;;1.75;;
6505;SDS011;3286;49.858;8.768;2022-09-01T12:01:39;15.35;;;2.30;;
6505;SDS011;3286;49.858;8.768;2022-09-01T12:04:20;3.85;;;1.90;;
6505;SDS011;3286;49.858;8.768;2022-09-01T12:06:54;4.53;;;1.80;;
6505;SDS011;3286;49.858;8.768;2022-09-01T12:09:30;3.40;;;1.80;;
6505;SDS011;3286;49.858;8.768;2022-09-01T12:12:02;1.70;;;1.60;;
6505;SDS011;3286;49.858;8.768;2022-09-01T12:14:31;1.50;;;1.40;;
6505;SDS011;3286;49.858;8.768;2022-09-01T12:17:00;4.93;;;1.77;;
6505;SDS011;3286;49.858;8.768;2022-09-01T12:19:28;2.92;;;1.52;;
6505;SDS011;3286;49.858;8.768;2022-09-01T12:21:57;2.17;;;1.75;;
6505;SDS011;3286;49.858;8.768;2022-09-01T12:24:26;2.38;;;1.73;;
6505;SDS011;3286;49.858;8.768;2022-09-01T12:26:57;1.58;;;1.48;;
6505;SDS011;3286;49.858;8.768;2022-09-01T12:29:25;6.72;;;1.95;;
6505;SDS011;3286;49.858;8.768;2022-09-01T12:31:54;1.73;;;1.60;;
6505;SDS011;3286;49.858;8.768;2022-09-01T12:34:24;2.17;;;1.65;;
6505;SDS011;3286;49.858;8.768;2022-09-01T12:37:04;4.38;;;1.83;;
6505;SDS011;3286;49.858;8.768;2022-09-01T12:39:33;4.35;;;2.10;;
6505;SDS011;3286;49.858;8.768;2022-09-01T12:42:08;9.07;;;1.90;;
6505;SDS011;3286;49.858;8.768;2022-09-01T12:44:45;1.80;;;1.70;;
6505;SDS011;3286;49.858;8.768;2022-09-01T12:50:35;2.50;;;1.80;;
6505;SDS011;3286;49.858;8.768;2022-09-01T12:53:14;2.13;;;1.80;;
6505;SDS011;3286;49.858;8.768;2022-09-01T12:55:53;2.15;;;1.70;;
6505;SDS011;3286;49.858;8.768;2022-09-01T12:58:24;10.45;;;1.85;;
6505;SDS011;3286;49.858;8.768;2022-09-01T13:00:54;3.58;;;1.58;;
6505;SDS011;3286;49.858;8.768;2022-09-01T13:03:24;2.05;;;1.67;;
6505;SDS011;3286;49.858;8.768;2022-09-01T13:05:52;3.05;;;1.70;;
6505;SDS011;3286;49.858;8.768;2022-09-01T13:08:21;2.58;;;1.65;;
6505;SDS011;3286;49.858;8.768;2022-09-01T13:10:50;8.63;;;1.65;;
6505;SDS011;3286;49.858;8.768;2022-09-01T13:13:18;5.70;;;2.10;;
6505;SDS011;3286;49.858;8.768;2022-09-01T13:15:49;2.05;;;1.70;;
6505;SDS011;3286;49.858;8.768;2022-09-01T13:18:18;1.83;;;1.63;;
6505;SDS011;3286;49.858;8.768;2022-09-01T13:20:47;2.05;;;1.70;;
6505;SDS011;3286;49.858;8.768;2022-09-01T13:23:14;2.67;;;1.50;;
6505;SDS011;3286;49.858;8.768;2022-09-01T13:25:41;5.47;;;1.77;;
6505;SDS011;3286;49.858;8.768;2022-09-01T13:28:10;9.63;;;1.95;;
6505;SDS011;3286;49.858;8.768;2022-09-01T13:30:37;2.03;;;1.50;;
6505;SDS011;3286;49.858;8.768;2022-09-01T13:33:05;3.10;;;1.70;;
6505;SDS011;3286;49.858;8.768;2022-09-01T13:35:32;2.92;;;2.08;;
6505;SDS011;3286;49.858;8.768;2022-09-01T13:38:00;2.00;;;1.75;;
6505;SDS011;3286;49.858;8.768;2022-09-01T13:40:26;1.95;;;1.50;;
6505;SDS011;3286;49.858;8.768;2022-09-01T13:42:53;7.55;;;2.10;;
6505;SDS011;3286;49.858;8.768;2022-09-01T13:45:20;2.15;;;1.40;;
6505;SDS011;3286;49.858;8.768;2022-09-01T13:47:50;2.90;;;1.70;;
6505;SDS011;3286;49.858;8.768;2022-09-01T13:50:18;1.80;;;1.50;;
6505;SDS011;3286;49.858;8.768;2022-09-01T13:52:48;7.10;;;1.63;;
6505;SDS011;3286;49.858;8.768;2022-09-01T13:55:18;1.67;;;1.58;;
6505;SDS011;3286;49.858;8.768;2022-09-01T13:57:47;2.92;;;1.70;;
6505;SDS011;3286;49.858;8.768;2022-09-01T14:00:15;3.75;;;1.60;;
6505;SDS011;3286;49.858;8.768;2022-09-01T14:02:44;1.80;;;1.50;;
6505;SDS011;3286;49.858;8.768;2022-09-01T14:05:14;2.50;;;1.73;;
6505;SDS011;3286;49.858;8.768;2022-09-01T14:07:42;2.47;;;1.70;;
6505;SDS011;3286;49.858;8.768;2022-09-01T14:10:09;2.05;;;1.60;;
6505;SDS011;3286;49.858;8.768;2022-09-01T14:12:39;2.33;;;1.67;;
6505;SDS011;3286;49.858;8.768;2022-09-01T14:15:07;3.58;;;1.50;;
6505;SDS011;3286;49.858;8.768;2022-09-01T14:17:35;1.80;;;1.65;;
6505;SDS011;3286;49.858;8.768;2022-09-01T14:20:03;1.50;;;1.40;;
6505;SDS011;3286;49.858;8.768;2022-09-01T14:22:31;3.53;;;2.30;;
6505;SDS011;3286;49.858;8.768;2022-09-01T14:24:58;3.75;;;1.80;;
6505;SDS011;3286;49.858;8.768;2022-09-01T14:27:25;2.13;;;1.67;;
6505;SDS011;3286;49.858;8.768;2022-09-01T14:29:54;1.60;;;1.50;;
6505;SDS011;3286;49.858;8.768;2022-09-01T14:32:21;2.10;;;1.70;;
6505;SDS011;3286;49.858;8.768;2022-09-01T14:34:51;1.63;;;1.52;;
6505;SDS011;3286;49.858;8.768;2022-09-01T14:37:17;1.70;;;1.60;;
6505;SDS011;3286;49.858;8.768;2022-09-01T14:39:47;2.10;;;1.50;;
6505;SDS011;3286;49.858;8.768;2022-09-01T14:42:14;3.05;;;1.60;;
6505;SDS011;3286;49.858;8.768;2022-09-01T14:44:43;1.60;;;1.50;;
6505;SDS011;3286;49.858;8.768;2022-09-01T14:47:11;2.97;;;1.85;;
6505;SDS011;3286;49.858;8.768;2022-09-01T14:49:38;3.05;;;1.67;;
6505;SDS011;3286;49.858;8.768;2022-09-01T14:52:06;1.65;;;1.55;;
6505;SDS011;3286;49.858;8.768;2022-09-01T14:54:33;1.65;;;1.52;;
6505;SDS011;3286;49.858;8.768;2022-09-01T14:57:01;4.00;;;1.60;;
6505;SDS011;3286;49.858;8.768;2022-09-01T14:59:28;1.98;;;1.67;;
6505;SDS011;3286;49.858;8.768;2022-09-01T15:01:55;2.35;;;1.70;;
6505;SDS011;3286;49.858;8.768;2022-09-01T15:04:23;1.95;;;1.70;;
6505;SDS011;3286;49.858;8.768;2022-09-01T15:06:50;5.20;;;1.75;;
6505;SDS011;3286;49.858;8.768;2022-09-01T15:09:16;2.35;;;1.80;;
6505;SDS011;3286;49.858;8.768;2022-09-01T15:11:43;4.78;;;2.20;;
6505;SDS011;3286;49.858;8.768;2022-09-01T15:14:10;2.10;;;1.60;;
6505;SDS011;3286;49.858;8.768;2022-09-01T15:16:37;3.05;;;1.73;;
6505;SDS011;3286;49.858;8.768;2022-09-01T15:19:05;2.30;;;1.60;;
6505;SDS011;3286;49.858;8.768;2022-09-01T15:21:35;3.03;;;1.50;;
6505;SDS011;3286;49.858;8.768;2022-09-01T15:24:03;2.33;;;1.50;;
6505;SDS011;3286;49.858;8.768;2022-09-01T15:26:30;1.98;;;1.63;;
6505;SDS011;3286;49.858;8.768;2022-09-01T15:28:58;6.93;;;2.20;;
6505;SDS011;3286;49.858;8.768;2022-09-01T15:31:26;2.55;;;1.50;;
6505;SDS011;3286;49.858;8.768;2022-09-01T15:33:56;2.40;;;2.17;;
6505;SDS011;3286;49.858;8.768;2022-09-01T15:36:25;1.70;;;1.60;;
6505;SDS011;3286;49.858;8.768;2022-09-01T15:38:55;2.78;;;1.60;;
6505;SDS011;3286;49.858;8.768;2022-09-01T15:41:22;2.17;;;1.70;;
6505;SDS011;3286;49.858;8.768;2022-09-01T15:43:51;1.48;;;1.33;;
6505;SDS011;3286;49.858;8.768;2022-09-01T15:46:18;1.85;;;1.40;;
6505;SDS011;3286;49.858;8.768;2022-09-01T15:48:46;1.70;;;1.60;;
6505;SDS011;3286;49.858;8.768;2022-09-01T15:51:29;2.50;;;1.55;;
6505;SDS011;3286;49.858;8.768;2022-09-01T15:54:00;3.03;;;1.40;;